createdAt,value
2019-04-21T00:03:40.778Z,34.57
2019-04-21T00:06:29.928Z,32.60
2019-04-21T00:22:54.668Z,32.10
2019-04-21T00:29:48.162Z,28.30
2019-04-21T00:41:53.693Z,37.90
2019-04-21T00:51:31.495Z,35.37
2019-04-21T01:27:56.408Z,30.80
2019-04-21T03:32:14.413Z,32.20
2019-04-21T04:38:46.765Z,25.77
2019-04-21T05:01:43.754Z,22.17
2019-04-21T06:01:18.300Z,17.27
2019-04-21T06:03:57.122Z,16.23
2019-04-21T06:16:48.016Z,14.03
2019-04-21T06:23:42.436Z,14.33
2019-04-21T06:30:05.235Z,16.13
2019-04-21T06:42:54.071Z,14.77
2019-04-21T06:49:08.616Z,19.80
2019-04-21T06:51:43.647Z,15.67
2019-04-21T06:54:23.895Z,12.90
2019-04-21T06:57:00.916Z,13.07
2019-04-21T07:07:19.004Z,14.43
2019-04-21T07:13:03.671Z,16.37
2019-04-21T07:19:13.181Z,18.27
2019-04-21T07:21:33.872Z,17.37
2019-04-21T07:24:10.689Z,14.93
2019-04-21T07:26:36.890Z,16.07
2019-04-21T07:30:12.942Z,15.27
2019-04-21T07:36:26.297Z,13.50
2019-04-21T07:42:22.357Z,17.70
2019-04-21T07:48:16.030Z,13.23
2019-04-21T07:54:10.349Z,14.30
2019-04-21T07:56:19.928Z,11.57
2019-04-21T07:59:03.836Z,12.53
2019-04-21T08:01:48.376Z,11.50
2019-04-21T08:11:25.355Z,13.57
2019-04-21T08:13:56.152Z,11.10
2019-04-21T08:16:45.712Z,11.57
2019-04-21T08:19:31.005Z,10.07
2019-04-21T08:22:12.495Z,11.90
2019-04-21T08:24:50.129Z,9.87
2019-04-21T08:27:25.833Z,9.33
2019-04-21T08:29:58.310Z,8.57
2019-04-21T08:37:55.421Z,8.50
2019-04-21T08:40:39.306Z,9.87
2019-04-21T08:43:09.341Z,9.77
2019-04-21T08:45:46.939Z,8.77
2019-04-21T08:48:26.837Z,10.53
2019-04-21T08:51:14.158Z,10.73
2019-04-21T08:56:21.357Z,7.47
2019-04-21T08:59:24.338Z,7.40
2019-04-21T09:02:08.938Z,8.40
2019-04-21T09:04:52.479Z,8.93
2019-04-21T09:23:45.181Z,10.30
2019-04-21T09:26:25.238Z,9.97
2019-04-21T09:28:51.928Z,9.20
2019-04-21T09:31:29.305Z,7.40
2019-04-21T09:33:57.768Z,7.53
2019-04-21T09:36:35.243Z,6.83
2019-04-21T09:39:48.437Z,7.70
2019-04-21T09:45:21.166Z,9.00
2019-04-21T09:47:57.204Z,8.53
2019-04-21T09:50:34.978Z,7.80
2019-04-21T09:53:17.913Z,7.27
2019-04-21T16:29:59.543Z,10.40
2019-04-21T16:32:32.228Z,8.60
2019-04-21T16:35:08.640Z,5.57
2019-04-21T17:05:09.960Z,5.50
2019-04-21T17:07:40.832Z,12.67
2019-04-21T17:10:12.706Z,9.60
2019-04-21T17:12:43.241Z,13.57
2019-04-21T17:15:29.365Z,13.40
2019-04-21T17:18:03.909Z,11.13
2019-04-21T17:20:33.290Z,11.40
2019-04-21T17:22:49.471Z,10.70
2019-04-21T17:25:24.098Z,11.03
2019-04-21T17:27:53.238Z,11.70
2019-04-21T17:30:26.437Z,12.00
2019-04-21T17:33:01.363Z,9.77
2019-04-21T17:35:31.310Z,10.23
2019-04-21T17:38:03.969Z,13.47
2019-04-21T17:40:35.932Z,11.40
2019-04-21T17:43:10.777Z,10.13
2019-04-21T17:45:39.348Z,13.30
2019-04-21T17:48:18.432Z,10.07
2019-04-21T17:51:03.401Z,10.63
2019-04-21T17:53:45.815Z,9.20
2019-04-21T17:56:55.157Z,10.13
2019-04-21T17:59:36.293Z,10.67
2019-04-21T18:01:54.628Z,9.87
2019-04-21T18:04:28.486Z,11.70
2019-04-21T18:07:17.330Z,10.90
2019-04-21T18:10:07.688Z,13.17
2019-04-21T18:12:33.852Z,12.03
2019-04-21T18:14:59.850Z,15.03
2019-04-21T18:17:22.770Z,11.10
2019-04-21T18:19:54.871Z,11.77
2019-04-21T18:22:58.604Z,11.70
2019-04-21T18:25:44.164Z,17.10
2019-04-21T18:28:04.841Z,16.63
2019-04-21T18:30:49.707Z,11.30
2019-04-21T18:33:27.231Z,11.37
2019-04-21T18:36:23.847Z,11.93
2019-04-21T18:39:21.889Z,12.37
2019-04-21T18:42:04.859Z,10.23
2019-04-21T18:47:58.515Z,11.57
2019-04-21T18:50:42.068Z,14.73
2019-04-21T18:53:19.474Z,10.53
2019-04-21T18:55:46.684Z,10.43
2019-04-21T18:58:15.848Z,10.13
2019-04-21T19:00:48.746Z,9.60
2019-04-21T19:03:31.913Z,10.43
2019-04-21T19:06:04.524Z,8.53
2019-04-21T19:08:46.958Z,10.60
2019-04-21T19:11:22.280Z,11.80
2019-04-21T19:14:20.766Z,11.50
2019-04-21T19:16:47.766Z,10.23
2019-04-21T19:21:55.860Z,7.90
2019-04-21T19:27:04.949Z,7.90
2019-04-21T19:29:29.157Z,7.53
2019-04-21T19:32:04.454Z,9.53
2019-04-21T19:34:23.731Z,7.80
2019-04-21T19:36:53.245Z,9.20
2019-04-21T19:39:39.078Z,7.53
2019-04-21T19:42:07.186Z,8.73
2019-04-21T19:44:48.256Z,10.40
2019-04-21T19:47:25.899Z,9.83
2019-04-21T19:50:19.431Z,9.00
2019-04-21T19:52:48.722Z,9.60
2019-04-21T19:55:12.022Z,11.00
2019-04-21T19:57:43.225Z,7.33
2019-04-21T20:00:15.908Z,7.97
2019-04-21T20:02:44.798Z,8.23
2019-04-21T20:05:24.236Z,9.27
2019-04-21T20:08:05.409Z,8.73
2019-04-21T20:10:42.338Z,8.07
2019-04-21T20:13:29.754Z,10.80
2019-04-21T20:15:52.309Z,7.67
2019-04-21T20:18:16.514Z,9.00
2019-04-21T20:20:35.214Z,9.63
2019-04-21T20:23:13.202Z,10.47
2019-04-21T20:25:43.747Z,9.20
2019-04-21T20:28:29.476Z,9.57
2019-04-21T20:31:03.839Z,9.60
2019-04-21T20:33:48.476Z,7.80
2019-04-21T20:36:09.268Z,7.97
2019-04-21T20:38:31.189Z,10.10
2019-04-21T20:41:01.911Z,11.83
2019-04-21T20:43:45.655Z,8.67
2019-04-21T20:46:12.536Z,8.53
2019-04-21T20:48:50.948Z,10.87
2019-04-21T20:51:29.963Z,10.60
2019-04-21T20:53:53.671Z,8.30
2019-04-21T20:56:20.607Z,11.93
2019-04-21T20:59:00.010Z,9.13
2019-04-21T21:04:06.146Z,9.40
2019-04-21T21:06:54.367Z,8.23
2019-04-21T21:09:25.331Z,9.57
2019-04-21T21:12:20.368Z,11.57
2019-04-21T21:14:34.851Z,8.33
2019-04-21T21:17:26.669Z,9.40
2019-04-21T21:19:55.771Z,9.97
2019-04-21T21:22:14.870Z,9.67
2019-04-21T21:24:53.317Z,8.50
2019-04-21T21:27:24.818Z,13.77
2019-04-21T21:30:04.832Z,10.27
2019-04-21T21:32:33.799Z,9.50
2019-04-21T21:35:13.146Z,8.87
2019-04-21T21:37:50.629Z,13.67
2019-04-21T21:40:21.858Z,9.33
2019-04-21T21:42:43.676Z,13.37
2019-04-21T21:45:17.741Z,15.97
2019-04-21T21:48:04.515Z,10.10
2019-04-21T21:50:23.956Z,10.93
2019-04-21T21:52:58.792Z,10.33
2019-04-21T21:55:25.708Z,9.50
2019-04-21T21:58:03.984Z,9.07
2019-04-21T22:00:36.985Z,9.07
2019-04-21T22:03:14.725Z,9.30
2019-04-21T22:05:46.537Z,10.00
2019-04-21T22:08:10.155Z,9.77
2019-04-21T22:10:41.079Z,12.40
2019-04-21T22:13:14.766Z,11.40
2019-04-21T22:15:48.280Z,13.37
2019-04-21T22:18:36.179Z,10.30
2019-04-21T22:21:02.258Z,10.07
2019-04-21T22:23:29.501Z,10.00
2019-04-21T22:25:53.505Z,10.27
2019-04-21T22:28:23.145Z,14.53
2019-04-21T22:30:55.153Z,9.47
2019-04-21T22:33:25.955Z,13.47
2019-04-21T22:36:02.696Z,11.73
2019-04-21T22:38:41.259Z,11.63
2019-04-21T22:41:10.017Z,10.47
2019-04-21T22:43:37.623Z,10.47
2019-04-21T22:46:01.101Z,10.23
2019-04-21T22:48:30.878Z,10.57
2019-04-21T22:51:06.965Z,11.17
2019-04-21T22:53:42.831Z,9.17
2019-04-21T22:56:24.229Z,9.70
2019-04-21T22:58:51.358Z,11.43
2019-04-21T23:01:30.199Z,11.63
2019-04-21T23:03:56.915Z,12.57
2019-04-21T23:06:27.585Z,11.07
2019-04-21T23:08:55.087Z,11.97
2019-04-21T23:11:28.018Z,12.07
2019-04-21T23:14:02.488Z,11.40
2019-04-21T23:20:05.712Z,10.70
2019-04-21T23:26:18.200Z,13.13
2019-04-21T23:28:52.710Z,12.93
2019-04-21T23:31:24.442Z,12.13
2019-04-21T23:33:32.876Z,11.53
2019-04-21T23:36:25.874Z,12.97
2019-04-21T23:39:06.986Z,12.70
2019-04-21T23:45:12.194Z,12.50
2019-04-21T23:51:31.400Z,18.50
2019-04-21T23:57:03.812Z,14.90
